createdAt,value
2022-12-01T00:00:33.596Z,7.31
2022-12-01T00:03:03.414Z,7.31
2022-12-01T00:05:35.789Z,7.32
2022-12-01T00:08:05.903Z,7.34
2022-12-01T00:10:34.273Z,7.37
2022-12-01T00:13:05.740Z,7.41
2022-12-01T00:15:37.808Z,7.42
2022-12-01T00:18:08.232Z,7.41
2022-12-01T00:20:40.674Z,7.42
2022-12-01T00:23:10.367Z,7.41
2022-12-01T00:25:40.079Z,7.41
2022-12-01T00:28:09.765Z,7.41
2022-12-01T00:30:39.476Z,7.43
2022-12-01T00:33:09.149Z,7.44
2022-12-01T00:35:41.479Z,7.40
2022-12-01T00:38:11.140Z,7.39
2022-12-01T00:40:40.831Z,7.37
2022-12-01T00:43:10.519Z,7.36
2022-12-01T00:45:40.290Z,7.35
2022-12-01T00:48:10.063Z,7.34
2022-12-01T00:50:42.399Z,7.33
2022-12-01T00:53:12.225Z,7.31
2022-12-01T00:55:43.126Z,7.32
2022-12-01T00:58:12.898Z,7.30
2022-12-01T01:00:43.099Z,7.29
2022-12-01T01:03:13.355Z,7.28
2022-12-01T01:05:46.369Z,7.26
2022-12-01T01:08:17.609Z,7.26
2022-12-01T01:10:50.792Z,7.25
2022-12-01T01:13:20.534Z,7.25
2022-12-01T01:16:00.645Z,7.24
2022-12-01T01:18:31.284Z,7.25
2022-12-01T01:21:05.528Z,7.24
2022-12-01T01:23:35.581Z,7.22
2022-12-01T01:26:07.036Z,7.23
2022-12-01T01:28:36.992Z,7.24
2022-12-01T01:31:09.187Z,7.24
2022-12-01T01:33:39.113Z,7.24
2022-12-01T01:36:13.190Z,7.26
2022-12-01T01:38:43.188Z,7.27
2022-12-01T01:41:13.701Z,7.27
2022-12-01T01:43:48.639Z,7.26
2022-12-01T01:46:20.406Z,7.27
2022-12-01T01:48:53.868Z,7.28
2022-12-01T01:51:30.704Z,7.27
2022-12-01T01:54:05.581Z,7.25
2022-12-01T01:56:36.103Z,7.23
2022-12-01T01:59:06.860Z,7.23
2022-12-01T02:01:36.731Z,7.20
2022-12-01T02:04:07.136Z,7.18
2022-12-01T02:06:39.521Z,7.19
2022-12-01T02:09:09.188Z,7.18
2022-12-01T02:12:05.239Z,7.21
2022-12-01T02:14:52.568Z,7.19
2022-12-01T02:17:37.514Z,7.20
2022-12-01T02:20:36.616Z,7.20
2022-12-01T02:23:32.385Z,7.17
2022-12-01T02:26:17.792Z,7.16
2022-12-01T02:29:06.129Z,7.14
2022-12-01T02:31:45.960Z,7.15
2022-12-01T02:34:24.331Z,7.18
2022-12-01T02:36:58.736Z,7.17
2022-12-01T02:39:35.205Z,7.18
2022-12-01T02:42:10.625Z,7.20
2022-12-01T02:44:46.525Z,7.20
2022-12-01T02:47:19.984Z,7.20
2022-12-01T02:49:52.279Z,7.21
2022-12-01T02:52:24.868Z,7.20
2022-12-01T02:54:56.116Z,7.20
2022-12-01T02:57:26.572Z,7.22
2022-12-01T02:59:58.199Z,7.20
2022-12-01T03:02:42.598Z,7.22
2022-12-01T03:05:21.597Z,7.22
2022-12-01T03:08:03.372Z,7.24
2022-12-01T03:10:43.991Z,7.22
2022-12-01T03:13:24.781Z,7.25
2022-12-01T03:16:04.730Z,7.24
2022-12-01T03:18:41.318Z,7.23
2022-12-01T03:21:15.247Z,7.25
2022-12-01T03:23:50.796Z,7.29
2022-12-01T03:26:24.603Z,7.31
2022-12-01T03:28:58.516Z,7.35
2022-12-01T03:31:33.818Z,7.39
2022-12-01T03:34:12.730Z,7.40
2022-12-01T03:36:45.470Z,7.41
2022-12-01T03:39:20.155Z,7.44
2022-12-01T03:41:56.407Z,7.47
2022-12-01T03:44:36.920Z,7.50
2022-12-01T03:47:10.254Z,7.54
2022-12-01T03:49:43.665Z,7.57
2022-12-01T03:52:20.503Z,7.58
2022-12-01T03:54:58.641Z,7.61
2022-12-01T03:57:32.919Z,7.63
2022-12-01T04:00:03.393Z,7.65
2022-12-01T04:02:33.650Z,7.64
2022-12-01T04:05:06.332Z,7.67
2022-12-01T04:07:36.116Z,7.68
2022-12-01T04:10:06.115Z,7.71
2022-12-01T04:12:33.519Z,7.72
2022-12-01T04:15:04.626Z,7.75
2022-12-01T04:17:34.756Z,7.75
2022-12-01T04:20:08.728Z,7.74
2022-12-01T04:22:38.428Z,7.71
2022-12-01T04:25:09.904Z,7.66
2022-12-01T04:27:40.002Z,7.65
2022-12-01T04:30:11.797Z,7.59
2022-12-01T04:32:42.262Z,7.55
2022-12-01T04:35:15.551Z,7.53
2022-12-01T04:37:45.271Z,7.50
2022-12-01T04:40:15.596Z,7.47
2022-12-01T04:42:45.321Z,7.40
2022-12-01T04:45:15.027Z,7.34
2022-12-01T04:47:44.719Z,7.32
2022-12-01T04:50:17.401Z,7.31
2022-12-01T04:52:47.098Z,7.28
2022-12-01T04:55:17.184Z,7.22
2022-12-01T04:57:46.926Z,7.19
2022-12-01T05:00:18.338Z,7.14
2022-12-01T05:02:48.016Z,7.12
2022-12-01T05:05:20.543Z,7.11
2022-12-01T05:07:50.332Z,7.09
2022-12-01T05:10:20.475Z,7.06
2022-12-01T05:12:50.511Z,7.03
2022-12-01T05:15:20.859Z,7.00
2022-12-01T05:17:50.588Z,6.98
2022-12-01T05:20:39.028Z,6.98
2022-12-01T05:23:15.118Z,6.94
2022-12-01T05:25:46.396Z,6.90
2022-12-01T05:28:16.085Z,6.87
2022-12-01T05:30:46.512Z,6.85
2022-12-01T05:33:16.214Z,6.85
2022-12-01T05:35:48.853Z,6.82
2022-12-01T05:38:19.112Z,6.79
2022-12-01T05:40:53.256Z,6.76
2022-12-01T05:43:28.777Z,6.70
2022-12-01T05:45:59.990Z,6.65
2022-12-01T05:48:29.902Z,6.63
2022-12-01T05:51:02.332Z,6.60
2022-12-01T05:53:32.062Z,6.57
2022-12-01T05:56:01.744Z,6.56
2022-12-01T05:58:31.471Z,6.54
2022-12-01T06:01:01.399Z,6.56
2022-12-01T06:03:31.088Z,6.55
2022-12-01T06:06:03.732Z,6.56
2022-12-01T06:08:33.403Z,6.54
2022-12-01T06:11:03.181Z,6.53
2022-12-01T06:13:32.917Z,6.54
2022-12-01T06:16:04.424Z,6.54
2022-12-01T06:18:36.402Z,6.55
2022-12-01T06:21:09.764Z,6.54
2022-12-01T06:23:39.496Z,6.54
2022-12-01T06:26:09.293Z,6.55
2022-12-01T06:28:38.980Z,6.55
2022-12-01T06:31:08.832Z,6.57
2022-12-01T06:33:38.535Z,6.59
2022-12-01T06:36:12.175Z,6.61
2022-12-01T06:38:41.899Z,6.62
2022-12-01T06:41:11.576Z,6.63
2022-12-01T06:43:41.256Z,6.63
2022-12-01T06:46:11.019Z,6.64
2022-12-01T06:48:40.718Z,6.63
2022-12-01T06:51:13.032Z,6.64
2022-12-01T06:53:42.704Z,6.65
2022-12-01T06:56:12.395Z,6.65
2022-12-01T06:58:42.499Z,6.65
2022-12-01T07:01:13.523Z,6.63
2022-12-01T07:03:43.328Z,6.63
2022-12-01T07:06:15.668Z,6.62
2022-12-01T07:08:45.567Z,6.58
2022-12-01T07:11:17.115Z,6.57
2022-12-01T07:13:49.643Z,6.54
2022-12-01T07:16:19.951Z,6.48
2022-12-01T07:18:49.752Z,6.44
2022-12-01T07:21:22.055Z,6.40
2022-12-01T07:23:51.791Z,6.38
2022-12-01T07:26:21.893Z,6.35
2022-12-01T07:28:51.690Z,6.33
2022-12-01T07:31:22.360Z,6.30
2022-12-01T07:33:52.294Z,6.27
2022-12-01T07:36:24.596Z,6.26
2022-12-01T07:38:54.341Z,6.28
2022-12-01T07:41:24.601Z,6.28
2022-12-01T07:43:54.373Z,6.30
2022-12-01T07:46:25.697Z,6.29
2022-12-01T07:48:56.241Z,6.28
2022-12-01T07:51:29.141Z,6.29
2022-12-01T07:53:58.857Z,6.28
2022-12-01T07:56:28.639Z,6.27
2022-12-01T07:58:58.655Z,6.28
2022-12-01T08:01:28.655Z,6.29
2022-12-01T08:04:00.462Z,6.29
2022-12-01T08:06:33.017Z,6.30
2022-12-01T08:09:02.750Z,6.32
2022-12-01T08:11:32.803Z,6.35
2022-12-01T08:14:02.584Z,6.38
2022-12-01T08:16:32.279Z,6.38
2022-12-01T08:19:02.040Z,6.38
2022-12-01T08:21:34.345Z,6.37
2022-12-01T08:24:04.036Z,6.44
2022-12-01T08:26:34.234Z,6.50
2022-12-01T08:29:03.979Z,6.61
2022-12-01T08:31:35.933Z,6.70
2022-12-01T08:34:08.738Z,6.92
2022-12-01T08:36:41.117Z,7.28
2022-12-01T08:39:11.402Z,7.59
2022-12-01T08:41:41.071Z,7.89
2022-12-01T08:44:12.256Z,8.00
2022-12-01T08:46:42.051Z,7.98
2022-12-01T08:49:11.795Z,7.94
2022-12-01T08:51:44.114Z,7.92
2022-12-01T08:54:14.796Z,7.85
2022-12-01T08:56:47.229Z,7.78
2022-12-01T08:59:17.059Z,7.73
2022-12-01T09:01:55.111Z,7.72
2022-12-01T09:04:26.520Z,7.69
2022-12-01T09:07:00.673Z,7.68
2022-12-01T09:09:31.513Z,7.66
2022-12-01T09:12:01.220Z,7.63
2022-12-01T09:14:30.946Z,7.61
2022-12-01T09:17:00.718Z,7.56
2022-12-01T09:19:33.588Z,7.56
2022-12-01T09:22:05.953Z,7.58
2022-12-01T09:24:35.722Z,7.60
2022-12-01T09:27:06.059Z,7.59
2022-12-01T09:29:36.099Z,7.58
2022-12-01T09:32:05.874Z,7.55
2022-12-01T09:34:35.540Z,7.51
2022-12-01T09:37:07.869Z,7.47
2022-12-01T09:39:37.551Z,7.42
2022-12-01T09:42:14.280Z,7.42
2022-12-01T09:44:47.815Z,7.41
2022-12-01T09:47:21.593Z,7.39
2022-12-01T09:49:58.386Z,7.39
2022-12-01T09:52:36.512Z,7.40
2022-12-01T09:55:06.453Z,7.40
2022-12-01T09:57:39.961Z,7.38
2022-12-01T10:00:15.604Z,7.37
2022-12-01T10:02:50.717Z,7.39
2022-12-01T10:05:23.911Z,7.43
2022-12-01T10:07:59.310Z,7.48
2022-12-01T10:10:31.787Z,7.53
2022-12-01T10:13:01.715Z,7.53
2022-12-01T10:15:40.922Z,7.56
2022-12-01T10:18:22.549Z,7.59
2022-12-01T10:20:59.984Z,7.64
2022-12-01T10:23:46.953Z,7.71
2022-12-01T10:26:20.176Z,7.75
2022-12-01T10:29:12.818Z,7.77
2022-12-01T10:31:53.458Z,7.78
2022-12-01T10:34:26.085Z,7.77
2022-12-01T10:36:56.107Z,7.76
2022-12-01T10:39:31.790Z,7.78
2022-12-01T10:42:08.944Z,7.85
2022-12-01T10:44:40.292Z,7.88
2022-12-01T10:47:20.416Z,7.88
2022-12-01T10:49:50.930Z,7.92
2022-12-01T10:52:37.192Z,7.95
2022-12-01T10:55:31.403Z,8.01
2022-12-01T10:58:09.054Z,8.01
2022-12-01T11:00:59.006Z,8.00
2022-12-01T11:03:33.107Z,7.98
2022-12-01T11:06:05.044Z,8.01
2022-12-01T11:08:41.965Z,8.01
2022-12-01T11:11:28.204Z,8.03
2022-12-01T11:13:59.825Z,7.99
2022-12-01T11:16:42.389Z,7.94
2022-12-01T11:19:27.356Z,7.89
2022-12-01T11:21:59.629Z,7.83
2022-12-01T11:24:42.318Z,7.85
2022-12-01T11:27:21.286Z,7.85
2022-12-01T11:29:53.368Z,7.84
2022-12-01T11:32:25.881Z,7.86
2022-12-01T11:34:59.812Z,7.86
2022-12-01T11:37:33.288Z,7.89
2022-12-01T11:40:11.089Z,7.93
2022-12-01T11:42:44.272Z,7.95
2022-12-01T11:45:29.414Z,7.99
2022-12-01T11:48:08.600Z,7.98
2022-12-01T11:50:40.584Z,8.01
2022-12-01T11:53:29.613Z,8.05
2022-12-01T11:56:17.583Z,8.11
2022-12-01T11:58:51.885Z,8.15
2022-12-01T12:01:31.859Z,8.18
2022-12-01T12:04:13.188Z,8.18
2022-12-01T12:06:50.733Z,8.20
2022-12-01T12:09:47.857Z,8.18
2022-12-01T12:12:32.613Z,8.13
2022-12-01T12:15:13.448Z,8.11
2022-12-01T12:18:01.556Z,8.13
2022-12-01T12:20:41.548Z,8.13
2022-12-01T12:23:25.146Z,8.14
2022-12-01T12:26:04.969Z,8.17
2022-12-01T12:28:49.840Z,8.21
2022-12-01T12:31:31.155Z,8.21
2022-12-01T12:34:25.389Z,8.22
2022-12-01T12:37:04.372Z,8.27
2022-12-01T12:39:50.976Z,8.32
2022-12-01T12:42:27.629Z,8.35
2022-12-01T12:45:05.140Z,8.37
2022-12-01T12:47:52.189Z,8.38
2022-12-01T12:50:30.941Z,8.35
2022-12-01T12:53:05.447Z,8.30
2022-12-01T12:55:40.116Z,8.28
2022-12-01T12:58:23.382Z,8.29
2022-12-01T13:00:59.863Z,8.25
2022-12-01T13:03:48.264Z,8.23
2022-12-01T13:06:22.886Z,8.23
2022-12-01T13:08:56.624Z,8.22
2022-12-01T13:11:30.407Z,8.21
2022-12-01T13:14:06.595Z,8.16
2022-12-01T13:16:39.428Z,8.10
2022-12-01T13:19:18.237Z,8.03
2022-12-01T13:21:51.127Z,7.99
2022-12-01T13:24:24.123Z,7.95
2022-12-01T13:27:00.352Z,7.94
2022-12-01T13:29:43.656Z,7.91
2022-12-01T13:32:30.119Z,7.89
2022-12-01T13:35:05.631Z,7.87
2022-12-01T13:37:37.300Z,7.85
2022-12-01T13:40:13.351Z,7.86
2022-12-01T13:42:43.714Z,7.84
2022-12-01T13:45:21.333Z,7.83
2022-12-01T13:47:54.488Z,7.80
2022-12-01T13:51:06.180Z,7.75
2022-12-01T13:53:40.354Z,7.71
2022-12-01T13:56:30.381Z,7.69
2022-12-01T13:59:00.102Z,7.70
2022-12-01T14:01:47.274Z,7.71
2022-12-01T14:04:32.460Z,7.70
2022-12-01T14:07:25.328Z,7.71
2022-12-01T14:10:01.812Z,7.72
2022-12-01T14:12:37.877Z,7.68
2022-12-01T14:15:25.401Z,7.64
2022-12-01T14:18:03.854Z,7.61
2022-12-01T14:20:37.446Z,7.55
2022-12-01T14:23:16.778Z,7.48
2022-12-01T14:26:14.301Z,7.40
2022-12-01T14:29:22.819Z,7.32
2022-12-01T14:32:24.036Z,7.24
2022-12-01T14:34:57.207Z,7.19
2022-12-01T14:37:31.887Z,7.16
2022-12-01T14:40:08.779Z,7.12
2022-12-01T14:42:56.173Z,7.10
2022-12-01T14:45:29.685Z,7.09
2022-12-01T14:48:04.697Z,7.07
2022-12-01T14:50:46.383Z,7.06
2022-12-01T14:53:26.344Z,7.01
2022-12-01T14:55:59.405Z,7.02
2022-12-01T14:58:33.535Z,7.06
2022-12-01T15:01:09.268Z,7.10
2022-12-01T15:03:42.894Z,7.15
2022-12-01T15:06:18.887Z,7.17
2022-12-01T15:09:10.465Z,7.11
2022-12-01T15:11:41.494Z,7.06
2022-12-01T15:14:31.561Z,7.06
2022-12-01T15:17:02.804Z,7.06
2022-12-01T15:19:40.448Z,7.03
2022-12-01T15:22:16.361Z,7.01
2022-12-01T15:24:47.335Z,6.99
2022-12-01T15:27:38.180Z,6.97
2022-12-01T15:30:16.952Z,6.93
2022-12-01T15:32:47.385Z,6.90
2022-12-01T15:35:21.486Z,6.89
2022-12-01T15:37:52.382Z,6.89
2022-12-01T15:41:06.186Z,6.88
2022-12-01T15:43:20.046Z,6.87
2022-12-01T15:45:57.318Z,6.86
2022-12-01T15:48:34.826Z,6.87
2022-12-01T15:51:09.984Z,6.85
2022-12-01T15:53:42.823Z,6.82
2022-12-01T15:56:14.386Z,6.79
2022-12-01T15:58:47.147Z,6.78
2022-12-01T16:01:22.160Z,6.75
2022-12-01T16:03:59.968Z,6.70
2022-12-01T16:06:32.076Z,6.69
2022-12-01T16:09:04.987Z,6.68
2022-12-01T16:11:34.833Z,6.68
2022-12-01T16:14:08.299Z,6.69
2022-12-01T16:16:44.448Z,6.67
2022-12-01T16:19:29.348Z,6.64
2022-12-01T16:22:05.951Z,6.65
2022-12-01T16:24:38.320Z,6.62
2022-12-01T16:27:19.500Z,6.63
2022-12-01T16:29:52.784Z,6.61
2022-12-01T16:32:29.629Z,6.59
2022-12-01T16:34:59.769Z,6.59
2022-12-01T16:37:29.796Z,6.59
2022-12-01T16:40:00.408Z,6.60
2022-12-01T16:42:30.394Z,6.61
2022-12-01T16:45:00.102Z,6.59
2022-12-01T16:47:34.792Z,6.57
2022-12-01T16:50:04.516Z,6.53
2022-12-01T16:52:44.182Z,6.54
2022-12-01T16:55:33.676Z,6.53
2022-12-01T16:58:03.397Z,6.53
2022-12-01T17:00:33.371Z,6.54
2022-12-01T17:03:06.202Z,6.53
2022-12-01T17:05:36.396Z,6.55
2022-12-01T17:08:07.258Z,6.53
2022-12-01T17:10:37.299Z,6.49
2022-12-01T17:13:06.991Z,6.48
2022-12-01T17:15:36.902Z,6.46
2022-12-01T17:18:09.428Z,6.44
2022-12-01T17:20:39.163Z,6.43
2022-12-01T17:23:09.072Z,6.37
2022-12-01T17:25:43.219Z,6.36
2022-12-01T17:28:12.915Z,6.35
2022-12-01T17:30:43.089Z,6.36
2022-12-01T17:33:15.458Z,6.37
2022-12-01T17:35:45.126Z,6.36
2022-12-01T17:38:14.811Z,6.37
2022-12-01T17:40:44.596Z,6.36
2022-12-01T17:43:14.288Z,6.33
2022-12-01T17:45:45.984Z,6.33
2022-12-01T17:48:18.274Z,6.34
2022-12-01T17:50:47.960Z,6.35
2022-12-01T17:53:17.637Z,6.34
2022-12-01T17:55:47.338Z,6.26
2022-12-01T17:58:18.898Z,6.23
2022-12-01T18:00:48.603Z,6.21
2022-12-01T18:03:21.409Z,6.22
2022-12-01T18:05:58.619Z,6.22
2022-12-01T18:08:30.430Z,6.20
2022-12-01T18:11:03.871Z,6.19
2022-12-01T18:13:33.552Z,6.17
2022-12-01T18:16:03.340Z,6.15
2022-12-01T18:18:35.729Z,6.18
2022-12-01T18:21:07.897Z,6.16
2022-12-01T18:23:38.636Z,6.14
2022-12-01T18:26:15.408Z,6.12
2022-12-01T18:28:45.821Z,6.11
2022-12-01T18:31:17.618Z,6.11
2022-12-01T18:33:50.044Z,6.07
2022-12-01T18:36:21.905Z,6.04
2022-12-01T18:38:52.621Z,6.03
2022-12-01T18:41:22.977Z,6.02
2022-12-01T18:43:53.052Z,6.02
2022-12-01T18:46:23.771Z,6.02
2022-12-01T18:49:00.999Z,5.99
2022-12-01T18:51:31.312Z,5.98
2022-12-01T18:54:02.871Z,5.99
2022-12-01T18:56:33.581Z,5.96
2022-12-01T18:59:05.021Z,5.96
2022-12-01T19:01:36.753Z,5.96
2022-12-01T19:04:11.060Z,5.93
2022-12-01T19:06:42.047Z,5.91
2022-12-01T19:09:15.514Z,5.90
2022-12-01T19:11:45.760Z,5.90
2022-12-01T19:14:18.451Z,5.88
2022-12-01T19:16:48.991Z,5.86
2022-12-01T19:19:21.304Z,5.88
2022-12-01T19:21:51.206Z,5.88
2022-12-01T19:24:20.940Z,5.88
2022-12-01T19:26:50.748Z,5.88
2022-12-01T19:29:20.711Z,5.88
2022-12-01T19:31:50.604Z,5.88
2022-12-01T19:34:23.043Z,5.91
2022-12-01T19:36:53.778Z,5.90
2022-12-01T19:39:23.543Z,5.91
2022-12-01T19:41:53.259Z,5.89
2022-12-01T19:44:23.201Z,5.88
2022-12-01T19:46:52.928Z,5.85
2022-12-01T19:49:25.261Z,5.85
2022-12-01T19:51:54.935Z,5.83
2022-12-01T19:54:24.920Z,5.83
2022-12-01T19:56:54.685Z,5.83
2022-12-01T19:59:24.515Z,5.80
2022-12-01T20:01:54.337Z,5.78
2022-12-01T20:04:26.779Z,5.75
2022-12-01T20:06:56.467Z,5.75
2022-12-01T20:09:26.217Z,5.74
2022-12-01T20:11:57.876Z,5.73
2022-12-01T20:14:27.699Z,5.72
2022-12-01T20:16:58.131Z,5.72
2022-12-01T20:19:30.491Z,5.72
2022-12-01T20:22:00.207Z,5.72
2022-12-01T20:24:29.892Z,5.73
2022-12-01T20:26:59.638Z,5.72
2022-12-01T20:29:31.605Z,5.72
2022-12-01T20:32:03.225Z,5.72
2022-12-01T20:34:38.424Z,5.73
2022-12-01T20:37:08.173Z,5.72
2022-12-01T20:39:39.895Z,5.69
2022-12-01T20:42:10.156Z,5.69
2022-12-01T20:44:40.573Z,5.66
2022-12-01T20:47:10.656Z,5.64
2022-12-01T20:49:42.988Z,5.63
2022-12-01T20:52:12.668Z,5.62
2022-12-01T20:54:42.608Z,5.59
2022-12-01T20:57:12.290Z,5.59
2022-12-01T20:59:42.027Z,5.59
2022-12-01T21:02:12.793Z,5.58
2022-12-01T21:04:45.327Z,5.60
2022-12-01T21:07:15.184Z,5.61
2022-12-01T21:09:44.880Z,5.64
2022-12-01T21:12:29.515Z,5.66
2022-12-01T21:15:05.511Z,5.68
2022-12-01T21:17:38.247Z,5.67
2022-12-01T21:20:22.175Z,5.68
2022-12-01T21:22:53.646Z,5.70
2022-12-01T21:25:25.716Z,5.67
2022-12-01T21:27:59.120Z,5.66
2022-12-01T21:30:30.094Z,5.67
2022-12-01T21:33:17.338Z,5.67
2022-12-01T21:35:52.913Z,5.67
2022-12-01T21:38:22.697Z,5.64
2022-12-01T21:40:52.433Z,5.63
2022-12-01T21:43:24.667Z,5.62
2022-12-01T21:46:00.700Z,5.60
2022-12-01T21:48:37.892Z,5.57
2022-12-01T21:51:23.017Z,5.55
2022-12-01T21:53:53.837Z,5.54
2022-12-01T21:56:26.609Z,5.55
2022-12-01T21:59:00.342Z,5.54
2022-12-01T22:01:31.830Z,5.52
2022-12-01T22:04:03.331Z,5.47
2022-12-01T22:06:40.008Z,5.44
2022-12-01T22:09:17.352Z,5.44
2022-12-01T22:11:50.218Z,5.43
2022-12-01T22:14:23.808Z,5.40
2022-12-01T22:16:59.164Z,5.41
2022-12-01T22:19:32.526Z,5.39
2022-12-01T22:22:21.772Z,5.38
2022-12-01T22:24:53.853Z,5.34
2022-12-01T22:27:35.723Z,5.32
2022-12-01T22:30:16.916Z,5.32
2022-12-01T22:32:57.074Z,5.33
2022-12-01T22:35:36.529Z,5.36
2022-12-01T22:38:29.777Z,5.32
2022-12-01T22:41:01.657Z,5.30
2022-12-01T22:43:50.364Z,5.26
2022-12-01T22:46:33.063Z,5.25
2022-12-01T22:49:05.795Z,5.22
2022-12-01T22:51:43.162Z,5.22
2022-12-01T22:54:33.044Z,5.22
2022-12-01T22:57:35.113Z,5.21
2022-12-01T23:00:16.780Z,5.14
2022-12-01T23:02:46.727Z,5.10
2022-12-01T23:05:24.131Z,5.08
2022-12-01T23:07:54.979Z,5.11
2022-12-01T23:10:29.032Z,5.09
2022-12-01T23:13:02.692Z,5.08
2022-12-01T23:15:34.990Z,5.08
2022-12-01T23:18:14.555Z,5.08
2022-12-01T23:20:45.079Z,5.07
2022-12-01T23:23:17.624Z,5.10
2022-12-01T23:25:52.742Z,5.10
2022-12-01T23:28:23.172Z,5.09
2022-12-01T23:30:55.784Z,5.03
2022-12-01T23:33:26.936Z,5.00
2022-12-01T23:35:59.241Z,5.02
2022-12-01T23:38:33.230Z,5.01
2022-12-01T23:41:09.583Z,5.00
2022-12-01T23:43:42.885Z,4.96
2022-12-01T23:46:15.050Z,4.94
2022-12-01T23:48:48.630Z,4.90
2022-12-01T23:51:22.785Z,4.90
2022-12-01T23:53:53.660Z,4.88
2022-12-01T23:56:30.326Z,4.88
2022-12-01T23:59:03.472Z,4.87
